sensor_id;sensor_type;location;lat;lon;timestamp;temperature;humidity
21216;DHT22;10765;50.954;5.322;2024-03-02T00:00:49;7.50;99.90
21216;DHT22;10765;50.954;5.322;2024-03-02T00:03:17;7.30;1.00
21216;DHT22;10765;50.954;5.322;2024-03-02T00:05:49;7.00;1.00
21216;DHT22;10765;50.954;5.322;2024-03-02T00:08:23;6.90;99.90
21216;DHT22;10765;50.954;5.322;2024-03-02T00:10:50;6.80;1.00
21216;DHT22;10765;50.954;5.322;2024-03-02T00:13:20;6.80;99.90
21216;DHT22;10765;50.954;5.322;2024-03-02T00:15:52;6.90;99.90
21216;DHT22;10765;50.954;5.322;2024-03-02T00:18:20;6.90;1.00
21216;DHT22;10765;50.954;5.322;2024-03-02T00:20:49;6.90;1.00
21216;DHT22;10765;50.954;5.322;2024-03-02T00:23:19;6.90;99.90
21216;DHT22;10765;50.954;5.322;2024-03-02T00:25:48;6.90;59.10
21216;DHT22;10765;50.954;5.322;2024-03-02T00:28:19;6.90;1.00
21216;DHT22;10765;50.954;5.322;2024-03-02T00:30:54;7.00;1.00
21216;DHT22;10765;50.954;5.322;2024-03-02T00:33:22;7.00;99.90
21216;DHT22;10765;50.954;5.322;2024-03-02T00:35:52;6.90;99.90
21216;DHT22;10765;50.954;5.322;2024-03-02T00:38:19;6.90;1.00
21216;DHT22;10765;50.954;5.322;2024-03-02T00:40:46;6.90;1.00
21216;DHT22;10765;50.954;5.322;2024-03-02T00:43:42;7.00;1.00
21216;DHT22;10765;50.954;5.322;2024-03-02T00:46:13;6.90;99.90
21216;DHT22;10765;50.954;5.322;2024-03-02T00:48:55;7.00;1.00
21216;DHT22;10765;50.954;5.322;2024-03-02T00:51:25;7.00;1.00
21216;DHT22;10765;50.954;5.322;2024-03-02T00:53:53;6.90;99.90
21216;DHT22;10765;50.954;5.322;2024-03-02T00:56:22;7.00;99.90
21216;DHT22;10765;50.954;5.322;2024-03-02T00:58:49;7.00;1.00
21216;DHT22;10765;50.954;5.322;2024-03-02T01:01:16;7.00;1.00
21216;DHT22;10765;50.954;5.322;2024-03-02T01:03:43;7.00;99.90
21216;DHT22;10765;50.954;5.322;2024-03-02T01:06:10;7.00;1.00
21216;DHT22;10765;50.954;5.322;2024-03-02T01:08:38;7.00;1.00
21216;DHT22;10765;50.954;5.322;2024-03-02T01:11:05;7.00;99.90
21216;DHT22;10765;50.954;5.322;2024-03-02T01:13:32;7.00;99.90
21216;DHT22;10765;50.954;5.322;2024-03-02T01:15:59;7.00;99.90
21216;DHT22;10765;50.954;5.322;2024-03-02T01:18:27;7.00;99.90
21216;DHT22;10765;50.954;5.322;2024-03-02T01:20:54;6.90;63.90
21216;DHT22;10765;50.954;5.322;2024-03-02T01:23:22;6.90;99.90
21216;DHT22;10765;50.954;5.322;2024-03-02T01:25:50;7.00;1.00
21216;DHT22;10765;50.954;5.322;2024-03-02T01:28:18;7.00;1.00
21216;DHT22;10765;50.954;5.322;2024-03-02T01:30:46;7.00;99.90
21216;DHT22;10765;50.954;5.322;2024-03-02T01:33:13;6.90;94.50
21216;DHT22;10765;50.954;5.322;2024-03-02T01:35:40;6.80;10.00
21216;DHT22;10765;50.954;5.322;2024-03-02T01:38:07;6.80;39.90
21216;DHT22;10765;50.954;5.322;2024-03-02T01:40:34;6.80;1.00
21216;DHT22;10765;50.954;5.322;2024-03-02T01:43:03;6.80;11.30
21216;DHT22;10765;50.954;5.322;2024-03-02T01:45:30;6.80;1.00
21216;DHT22;10765;50.954;5.322;2024-03-02T01:47:57;6.80;1.00
21216;DHT22;10765;50.954;5.322;2024-03-02T01:50:26;6.70;1.00
21216;DHT22;10765;50.954;5.322;2024-03-02T01:52:54;6.70;1.00
21216;DHT22;10765;50.954;5.322;2024-03-02T01:55:21;6.60;1.00
21216;DHT22;10765;50.954;5.322;2024-03-02T01:57:48;6.80;1.00
21216;DHT22;10765;50.954;5.322;2024-03-02T02:00:18;6.70;99.90
21216;DHT22;10765;50.954;5.322;2024-03-02T02:02:45;6.80;99.90
21216;DHT22;10765;50.954;5.322;2024-03-02T02:05:12;6.70;99.90
21216;DHT22;10765;50.954;5.322;2024-03-02T02:07:40;6.80;99.90
21216;DHT22;10765;50.954;5.322;2024-03-02T02:10:08;6.80;99.90
21216;DHT22;10765;50.954;5.322;2024-03-02T02:12:35;6.90;99.90
21216;DHT22;10765;50.954;5.322;2024-03-02T02:15:03;6.80;99.90
21216;DHT22;10765;50.954;5.322;2024-03-02T02:17:32;6.80;99.90
21216;DHT22;10765;50.954;5.322;2024-03-02T02:19:59;6.80;99.90
21216;DHT22;10765;50.954;5.322;2024-03-02T02:22:27;6.80;1.00
21216;DHT22;10765;50.954;5.322;2024-03-02T02:24:54;6.70;1.00
21216;DHT22;10765;50.954;5.322;2024-03-02T02:27:21;6.60;99.90
21216;DHT22;10765;50.954;5.322;2024-03-02T02:29:48;6.70;99.90
21216;DHT22;10765;50.954;5.322;2024-03-02T02:32:15;6.50;1.00
21216;DHT22;10765;50.954;5.322;2024-03-02T02:34:42;6.40;45.20
21216;DHT22;10765;50.954;5.322;2024-03-02T02:37:09;6.40;1.00
21216;DHT22;10765;50.954;5.322;2024-03-02T02:39:37;6.30;99.90
21216;DHT22;10765;50.954;5.322;2024-03-02T02:42:06;6.40;1.00
21216;DHT22;10765;50.954;5.322;2024-03-02T02:44:33;6.50;99.90
21216;DHT22;10765;50.954;5.322;2024-03-02T02:47:00;6.50;99.90
21216;DHT22;10765;50.954;5.322;2024-03-02T02:49:26;6.50;19.30
21216;DHT22;10765;50.954;5.322;2024-03-02T02:51:53;6.60;1.00
21216;DHT22;10765;50.954;5.322;2024-03-02T02:54:20;6.60;1.00
21216;DHT22;10765;50.954;5.322;2024-03-02T02:56:48;6.60;1.00
21216;DHT22;10765;50.954;5.322;2024-03-02T02:59:15;6.60;1.00
21216;DHT22;10765;50.954;5.322;2024-03-02T03:01:42;6.70;1.00
21216;DHT22;10765;50.954;5.322;2024-03-02T03:04:09;6.60;1.00
21216;DHT22;10765;50.954;5.322;2024-03-02T03:06:36;6.70;1.00
21216;DHT22;10765;50.954;5.322;2024-03-02T03:09:03;6.70;1.00
21216;DHT22;10765;50.954;5.322;2024-03-02T03:11:30;6.70;99.90
21216;DHT22;10765;50.954;5.322;2024-03-02T03:13:58;6.80;99.90
21216;DHT22;10765;50.954;5.322;2024-03-02T03:16:27;7.00;99.90
21216;DHT22;10765;50.954;5.322;2024-03-02T03:18:53;7.00;99.90
21216;DHT22;10765;50.954;5.322;2024-03-02T03:21:20;7.00;90.50
21216;DHT22;10765;50.954;5.322;2024-03-02T03:23:47;7.10;45.40
21216;DHT22;10765;50.954;5.322;2024-03-02T03:26:14;7.10;1.00
21216;DHT22;10765;50.954;5.322;2024-03-02T03:28:41;7.10;1.00
21216;DHT22;10765;50.954;5.322;2024-03-02T03:31:09;7.10;1.00
21216;DHT22;10765;50.954;5.322;2024-03-02T03:33:36;7.10;1.00
21216;DHT22;10765;50.954;5.322;2024-03-02T03:36:03;7.00;1.00
21216;DHT22;10765;50.954;5.322;2024-03-02T03:38:30;7.00;1.00
21216;DHT22;10765;50.954;5.322;2024-03-02T03:40:57;7.00;70.60
21216;DHT22;10765;50.954;5.322;2024-03-02T03:43:24;6.90;99.90
21216;DHT22;10765;50.954;5.322;2024-03-02T03:45:51;6.90;99.90
21216;DHT22;10765;50.954;5.322;2024-03-02T03:48:20;6.90;99.90
21216;DHT22;10765;50.954;5.322;2024-03-02T03:50:46;7.00;99.90
21216;DHT22;10765;50.954;5.322;2024-03-02T03:53:13;7.10;1.00
21216;DHT22;10765;50.954;5.322;2024-03-02T03:55:41;7.20;1.00
21216;DHT22;10765;50.954;5.322;2024-03-02T03:58:08;7.20;1.00
21216;DHT22;10765;50.954;5.322;2024-03-02T04:00:35;7.30;1.00
21216;DHT22;10765;50.954;5.322;2024-03-02T04:03:02;7.30;1.00
21216;DHT22;10765;50.954;5.322;2024-03-02T04:05:30;7.30;1.00
21216;DHT22;10765;50.954;5.322;2024-03-02T04:07:57;7.40;1.00
21216;DHT22;10765;50.954;5.322;2024-03-02T04:10:24;7.40;1.00
21216;DHT22;10765;50.954;5.322;2024-03-02T04:12:51;7.30;1.00
21216;DHT22;10765;50.954;5.322;2024-03-02T04:15:17;7.30;1.00
21216;DHT22;10765;50.954;5.322;2024-03-02T04:17:45;7.30;1.00
21216;DHT22;10765;50.954;5.322;2024-03-02T04:20:12;7.20;1.00
21216;DHT22;10765;50.954;5.322;2024-03-02T04:22:40;7.10;1.00
21216;DHT22;10765;50.954;5.322;2024-03-02T04:25:08;7.00;1.00
21216;DHT22;10765;50.954;5.322;2024-03-02T04:27:35;6.90;1.00
21216;DHT22;10765;50.954;5.322;2024-03-02T04:30:03;6.80;1.00
21216;DHT22;10765;50.954;5.322;2024-03-02T04:32:31;6.80;1.00
21216;DHT22;10765;50.954;5.322;2024-03-02T04:34:58;6.80;1.00
21216;DHT22;10765;50.954;5.322;2024-03-02T04:37:25;6.80;1.00
21216;DHT22;10765;50.954;5.322;2024-03-02T04:39:53;6.80;1.00
21216;DHT22;10765;50.954;5.322;2024-03-02T04:42:20;6.80;1.00
21216;DHT22;10765;50.954;5.322;2024-03-02T04:44:48;6.80;1.00
21216;DHT22;10765;50.954;5.322;2024-03-02T04:47:15;6.90;1.00
21216;DHT22;10765;50.954;5.322;2024-03-02T04:49:42;7.00;1.00
21216;DHT22;10765;50.954;5.322;2024-03-02T04:52:09;7.10;1.00
21216;DHT22;10765;50.954;5.322;2024-03-02T04:54:36;7.10;1.00
21216;DHT22;10765;50.954;5.322;2024-03-02T04:57:24;7.00;1.00
21216;DHT22;10765;50.954;5.322;2024-03-02T04:59:51;6.80;1.00
21216;DHT22;10765;50.954;5.322;2024-03-02T05:02:18;6.70;1.00
21216;DHT22;10765;50.954;5.322;2024-03-02T05:04:45;6.70;1.00
21216;DHT22;10765;50.954;5.322;2024-03-02T05:07:13;6.60;1.00
21216;DHT22;10765;50.954;5.322;2024-03-02T05:09:40;6.50;1.00
21216;DHT22;10765;50.954;5.322;2024-03-02T05:12:07;6.50;1.00
21216;DHT22;10765;50.954;5.322;2024-03-02T05:14:56;6.40;1.00
21216;DHT22;10765;50.954;5.322;2024-03-02T05:17:23;6.40;99.90
21216;DHT22;10765;50.954;5.322;2024-03-02T05:19:50;6.40;99.90
21216;DHT22;10765;50.954;5.322;2024-03-02T05:22:16;6.30;99.90
21216;DHT22;10765;50.954;5.322;2024-03-02T05:24:43;6.30;99.90
21216;DHT22;10765;50.954;5.322;2024-03-02T05:27:10;6.30;99.90
21216;DHT22;10765;50.954;5.322;2024-03-02T05:29:37;6.30;99.90
21216;DHT22;10765;50.954;5.322;2024-03-02T05:32:06;6.30;99.90
21216;DHT22;10765;50.954;5.322;2024-03-02T05:34:33;6.30;99.90
21216;DHT22;10765;50.954;5.322;2024-03-02T05:37:01;6.30;99.90
21216;DHT22;10765;50.954;5.322;2024-03-02T05:39:28;6.30;99.90
21216;DHT22;10765;50.954;5.322;2024-03-02T05:41:54;6.30;99.90
21216;DHT22;10765;50.954;5.322;2024-03-02T05:44:21;6.20;99.90
21216;DHT22;10765;50.954;5.322;2024-03-02T05:46:48;6.30;99.90
21216;DHT22;10765;50.954;5.322;2024-03-02T05:49:16;6.30;99.90
21216;DHT22;10765;50.954;5.322;2024-03-02T05:51:43;6.30;99.90
21216;DHT22;10765;50.954;5.322;2024-03-02T05:54:10;6.30;99.90
21216;DHT22;10765;50.954;5.322;2024-03-02T05:56:37;6.30;99.90
21216;DHT22;10765;50.954;5.322;2024-03-02T05:59:04;6.30;99.90
21216;DHT22;10765;50.954;5.322;2024-03-02T06:01:38;6.30;99.90
21216;DHT22;10765;50.954;5.322;2024-03-02T06:04:05;6.30;99.90
21216;DHT22;10765;50.954;5.322;2024-03-02T06:06:33;6.30;99.90
21216;DHT22;10765;50.954;5.322;2024-03-02T06:09:00;6.30;99.90
21216;DHT22;10765;50.954;5.322;2024-03-02T06:11:28;6.30;99.90
21216;DHT22;10765;50.954;5.322;2024-03-02T06:13:55;6.30;99.90
21216;DHT22;10765;50.954;5.322;2024-03-02T06:16:22;6.20;99.90
21216;DHT22;10765;50.954;5.322;2024-03-02T06:18:49;6.30;99.90
21216;DHT22;10765;50.954;5.322;2024-03-02T06:21:15;6.30;99.90
21216;DHT22;10765;50.954;5.322;2024-03-02T06:23:45;6.30;99.90
21216;DHT22;10765;50.954;5.322;2024-03-02T06:26:12;6.30;99.90
21216;DHT22;10765;50.954;5.322;2024-03-02T06:28:39;6.30;99.90
21216;DHT22;10765;50.954;5.322;2024-03-02T06:31:06;6.40;99.90
21216;DHT22;10765;50.954;5.322;2024-03-02T06:33:33;6.40;99.90
21216;DHT22;10765;50.954;5.322;2024-03-02T06:36:00;6.40;99.90
21216;DHT22;10765;50.954;5.322;2024-03-02T06:38:26;6.40;16.80
21216;DHT22;10765;50.954;5.322;2024-03-02T06:40:54;6.50;1.00
21216;DHT22;10765;50.954;5.322;2024-03-02T06:43:21;6.50;1.00
21216;DHT22;10765;50.954;5.322;2024-03-02T06:45:48;6.50;1.00
21216;DHT22;10765;50.954;5.322;2024-03-02T06:48:16;6.50;1.00
21216;DHT22;10765;50.954;5.322;2024-03-02T06:50:45;6.60;1.00
21216;DHT22;10765;50.954;5.322;2024-03-02T06:53:13;6.70;1.00
21216;DHT22;10765;50.954;5.322;2024-03-02T06:55:43;7.10;1.00
21216;DHT22;10765;50.954;5.322;2024-03-02T06:58:11;7.50;1.00
21216;DHT22;10765;50.954;5.322;2024-03-02T07:00:38;7.80;99.90
21216;DHT22;10765;50.954;5.322;2024-03-02T07:03:05;8.10;99.90
21216;DHT22;10765;50.954;5.322;2024-03-02T07:05:32;8.40;99.90
21216;DHT22;10765;50.954;5.322;2024-03-02T07:07:59;8.80;99.90
21216;DHT22;10765;50.954;5.322;2024-03-02T07:10:27;8.60;99.90
21216;DHT22;10765;50.954;5.322;2024-03-02T07:12:54;8.40;99.90
21216;DHT22;10765;50.954;5.322;2024-03-02T07:15:22;8.00;99.90
21216;DHT22;10765;50.954;5.322;2024-03-02T07:18:08;7.70;99.90
21216;DHT22;10765;50.954;5.322;2024-03-02T07:20:35;7.50;99.90
21216;DHT22;10765;50.954;5.322;2024-03-02T07:23:04;7.30;99.90
21216;DHT22;10765;50.954;5.322;2024-03-02T07:25:31;7.30;99.90
21216;DHT22;10765;50.954;5.322;2024-03-02T07:27:58;7.30;99.90
21216;DHT22;10765;50.954;5.322;2024-03-02T07:30:26;7.20;99.90
21216;DHT22;10765;50.954;5.322;2024-03-02T07:32:53;7.30;99.90
21216;DHT22;10765;50.954;5.322;2024-03-02T07:35:21;7.30;99.90
21216;DHT22;10765;50.954;5.322;2024-03-02T07:37:52;7.30;99.90
21216;DHT22;10765;50.954;5.322;2024-03-02T07:40:19;7.30;99.90
21216;DHT22;10765;50.954;5.322;2024-03-02T07:42:46;7.30;99.90
21216;DHT22;10765;50.954;5.322;2024-03-02T07:45:13;7.40;99.90
21216;DHT22;10765;50.954;5.322;2024-03-02T07:47:41;7.60;99.90
21216;DHT22;10765;50.954;5.322;2024-03-02T07:50:09;7.90;99.90
21216;DHT22;10765;50.954;5.322;2024-03-02T07:52:36;8.80;99.90
21216;DHT22;10765;50.954;5.322;2024-03-02T07:55:03;10.40;99.90
21216;DHT22;10765;50.954;5.322;2024-03-02T07:57:31;11.50;1.00
21216;DHT22;10765;50.954;5.322;2024-03-02T07:59:58;12.40;1.00
21216;DHT22;10765;50.954;5.322;2024-03-02T08:02:25;13.40;1.00
21216;DHT22;10765;50.954;5.322;2024-03-02T08:04:53;13.70;1.00
21216;DHT22;10765;50.954;5.322;2024-03-02T08:07:20;13.80;1.00
21216;DHT22;10765;50.954;5.322;2024-03-02T08:09:47;14.10;1.00
21216;DHT22;10765;50.954;5.322;2024-03-02T08:12:14;14.50;1.00
21216;DHT22;10765;50.954;5.322;2024-03-02T08:14:41;14.90;1.00
21216;DHT22;10765;50.954;5.322;2024-03-02T08:17:08;14.40;1.00
21216;DHT22;10765;50.954;5.322;2024-03-02T08:19:37;15.00;1.00
21216;DHT22;10765;50.954;5.322;2024-03-02T08:22:05;15.50;1.00
21216;DHT22;10765;50.954;5.322;2024-03-02T08:24:33;15.40;1.00
21216;DHT22;10765;50.954;5.322;2024-03-02T08:27:00;15.00;1.00
21216;DHT22;10765;50.954;5.322;2024-03-02T08:29:27;15.00;1.00
21216;DHT22;10765;50.954;5.322;2024-03-02T08:31:54;15.10;1.00
21216;DHT22;10765;50.954;5.322;2024-03-02T08:34:21;15.00;1.00
21216;DHT22;10765;50.954;5.322;2024-03-02T08:36:48;15.10;1.00
21216;DHT22;10765;50.954;5.322;2024-03-02T08:39:16;15.00;1.00
21216;DHT22;10765;50.954;5.322;2024-03-02T08:41:45;15.10;1.00
21216;DHT22;10765;50.954;5.322;2024-03-02T08:44:12;14.90;1.00
21216;DHT22;10765;50.954;5.322;2024-03-02T08:46:40;14.90;1.00
21216;DHT22;10765;50.954;5.322;2024-03-02T08:49:07;15.00;1.00
21216;DHT22;10765;50.954;5.322;2024-03-02T08:51:34;15.10;1.00
21216;DHT22;10765;50.954;5.322;2024-03-02T08:54:01;15.60;1.00
21216;DHT22;10765;50.954;5.322;2024-03-02T08:56:30;15.40;1.00
21216;DHT22;10765;50.954;5.322;2024-03-02T08:58:58;15.00;1.00
21216;DHT22;10765;50.954;5.322;2024-03-02T09:01:25;16.20;1.00
21216;DHT22;10765;50.954;5.322;2024-03-02T09:03:52;16.20;1.00
21216;DHT22;10765;50.954;5.322;2024-03-02T09:06:19;16.50;1.00
21216;DHT22;10765;50.954;5.322;2024-03-02T09:08:46;16.80;1.00
21216;DHT22;10765;50.954;5.322;2024-03-02T09:11:15;16.60;1.00
21216;DHT22;10765;50.954;5.322;2024-03-02T09:13:43;17.20;1.00
21216;DHT22;10765;50.954;5.322;2024-03-02T09:16:10;16.30;1.00
21216;DHT22;10765;50.954;5.322;2024-03-02T09:18:37;16.00;1.00
21216;DHT22;10765;50.954;5.322;2024-03-02T09:21:04;16.80;1.00
21216;DHT22;10765;50.954;5.322;2024-03-02T09:23:32;17.50;1.00
21216;DHT22;10765;50.954;5.322;2024-03-02T09:25:59;17.60;1.00
21216;DHT22;10765;50.954;5.322;2024-03-02T09:28:26;17.20;1.00
21216;DHT22;10765;50.954;5.322;2024-03-02T09:30:54;18.50;1.00
21216;DHT22;10765;50.954;5.322;2024-03-02T09:33:21;18.50;1.00
21216;DHT22;10765;50.954;5.322;2024-03-02T09:35:49;18.50;1.00
21216;DHT22;10765;50.954;5.322;2024-03-02T09:38:16;18.80;1.00
21216;DHT22;10765;50.954;5.322;2024-03-02T09:40:43;18.50;1.00
21216;DHT22;10765;50.954;5.322;2024-03-02T09:43:10;19.10;1.00
21216;DHT22;10765;50.954;5.322;2024-03-02T09:45:37;19.60;1.00
21216;DHT22;10765;50.954;5.322;2024-03-02T09:48:07;18.60;1.00
21216;DHT22;10765;50.954;5.322;2024-03-02T09:50:34;16.80;1.00
21216;DHT22;10765;50.954;5.322;2024-03-02T09:53:01;15.60;1.00
21216;DHT22;10765;50.954;5.322;2024-03-02T09:55:28;15.50;1.00
21216;DHT22;10765;50.954;5.322;2024-03-02T09:57:55;15.40;1.00
21216;DHT22;10765;50.954;5.322;2024-03-02T10:00:22;15.10;1.00
21216;DHT22;10765;50.954;5.322;2024-03-02T10:02:50;15.30;1.00
21216;DHT22;10765;50.954;5.322;2024-03-02T10:05:27;14.50;1.00
21216;DHT22;10765;50.954;5.322;2024-03-02T10:08:01;14.70;1.00
21216;DHT22;10765;50.954;5.322;2024-03-02T10:10:36;15.70;1.00
21216;DHT22;10765;50.954;5.322;2024-03-02T10:13:06;16.20;1.00
21216;DHT22;10765;50.954;5.322;2024-03-02T10:15:33;15.90;1.00
21216;DHT22;10765;50.954;5.322;2024-03-02T10:18:00;16.40;1.00
21216;DHT22;10765;50.954;5.322;2024-03-02T10:20:28;15.60;1.00
21216;DHT22;10765;50.954;5.322;2024-03-02T10:22:55;14.40;1.00
21216;DHT22;10765;50.954;5.322;2024-03-02T10:25:29;14.30;1.00
21216;DHT22;10765;50.954;5.322;2024-03-02T10:27:57;13.40;1.00
21216;DHT22;10765;50.954;5.322;2024-03-02T10:30:25;13.40;1.00
21216;DHT22;10765;50.954;5.322;2024-03-02T10:32:53;14.10;1.00
21216;DHT22;10765;50.954;5.322;2024-03-02T10:35:20;14.20;1.00
21216;DHT22;10765;50.954;5.322;2024-03-02T10:37:50;14.10;1.00
21216;DHT22;10765;50.954;5.322;2024-03-02T10:40:18;14.00;1.00
21216;DHT22;10765;50.954;5.322;2024-03-02T10:42:45;14.10;1.00
21216;DHT22;10765;50.954;5.322;2024-03-02T10:45:12;14.70;1.00
21216;DHT22;10765;50.954;5.322;2024-03-02T10:47:43;15.70;1.00
21216;DHT22;10765;50.954;5.322;2024-03-02T10:50:10;17.40;1.00
21216;DHT22;10765;50.954;5.322;2024-03-02T10:52:37;16.80;1.00
21216;DHT22;10765;50.954;5.322;2024-03-02T10:55:08;17.50;1.00
21216;DHT22;10765;50.954;5.322;2024-03-02T10:57:41;18.40;1.00
21216;DHT22;10765;50.954;5.322;2024-03-02T11:00:12;19.20;1.00
21216;DHT22;10765;50.954;5.322;2024-03-02T11:02:45;18.70;1.00
21216;DHT22;10765;50.954;5.322;2024-03-02T11:05:24;19.60;1.00
21216;DHT22;10765;50.954;5.322;2024-03-02T11:07:55;20.10;1.00
21216;DHT22;10765;50.954;5.322;2024-03-02T11:10:25;21.10;1.00
21216;DHT22;10765;50.954;5.322;2024-03-02T11:12:57;22.40;1.00
21216;DHT22;10765;50.954;5.322;2024-03-02T11:15:27;22.20;1.00
21216;DHT22;10765;50.954;5.322;2024-03-02T11:17:55;22.30;1.00
21216;DHT22;10765;50.954;5.322;2024-03-02T11:20:23;21.50;1.00
21216;DHT22;10765;50.954;5.322;2024-03-02T11:22:50;20.50;1.00
21216;DHT22;10765;50.954;5.322;2024-03-02T11:25:26;20.90;1.00
21216;DHT22;10765;50.954;5.322;2024-03-02T11:28:00;21.40;1.00
21216;DHT22;10765;50.954;5.322;2024-03-02T11:30:52;21.60;1.00
21216;DHT22;10765;50.954;5.322;2024-03-02T11:33:26;21.60;1.00
21216;DHT22;10765;50.954;5.322;2024-03-02T11:35:57;20.20;1.00
21216;DHT22;10765;50.954;5.322;2024-03-02T11:38:28;19.50;1.00
21216;DHT22;10765;50.954;5.322;2024-03-02T11:40:59;18.40;1.00
21216;DHT22;10765;50.954;5.322;2024-03-02T11:43:28;18.40;1.00
21216;DHT22;10765;50.954;5.322;2024-03-02T11:45:58;20.00;1.00
21216;DHT22;10765;50.954;5.322;2024-03-02T11:48:25;18.90;1.00
21216;DHT22;10765;50.954;5.322;2024-03-02T11:50:52;19.50;1.00
21216;DHT22;10765;50.954;5.322;2024-03-02T11:53:20;19.80;1.00
21216;DHT22;10765;50.954;5.322;2024-03-02T11:55:47;18.20;1.00
21216;DHT22;10765;50.954;5.322;2024-03-02T11:58:17;18.00;1.00
21216;DHT22;10765;50.954;5.322;2024-03-02T12:00:46;17.80;1.00
21216;DHT22;10765;50.954;5.322;2024-03-02T12:03:14;16.30;1.00
21216;DHT22;10765;50.954;5.322;2024-03-02T12:05:42;16.30;1.00
21216;DHT22;10765;50.954;5.322;2024-03-02T12:08:10;18.10;1.00
21216;DHT22;10765;50.954;5.322;2024-03-02T12:10:37;18.10;1.00
21216;DHT22;10765;50.954;5.322;2024-03-02T12:13:06;18.10;1.00
21216;DHT22;10765;50.954;5.322;2024-03-02T12:15:37;18.60;1.00
21216;DHT22;10765;50.954;5.322;2024-03-02T12:18:05;17.60;1.00
21216;DHT22;10765;50.954;5.322;2024-03-02T12:20:33;17.70;1.00
21216;DHT22;10765;50.954;5.322;2024-03-02T12:23:01;17.60;1.00
21216;DHT22;10765;50.954;5.322;2024-03-02T12:25:30;16.90;1.00
21216;DHT22;10765;50.954;5.322;2024-03-02T12:28:00;17.60;1.00
21216;DHT22;10765;50.954;5.322;2024-03-02T12:30:29;18.90;1.00
21216;DHT22;10765;50.954;5.322;2024-03-02T12:32:58;20.90;1.00
21216;DHT22;10765;50.954;5.322;2024-03-02T12:35:25;23.10;1.00
21216;DHT22;10765;50.954;5.322;2024-03-02T12:37:53;21.40;1.00
21216;DHT22;10765;50.954;5.322;2024-03-02T12:40:21;19.80;1.00
21216;DHT22;10765;50.954;5.322;2024-03-02T12:42:49;18.50;1.00
21216;DHT22;10765;50.954;5.322;2024-03-02T12:45:16;16.90;1.00
21216;DHT22;10765;50.954;5.322;2024-03-02T12:47:49;17.00;1.00
21216;DHT22;10765;50.954;5.322;2024-03-02T12:50:17;17.60;1.00
21216;DHT22;10765;50.954;5.322;2024-03-02T12:52:51;18.90;1.00
21216;DHT22;10765;50.954;5.322;2024-03-02T12:55:19;20.10;1.00
21216;DHT22;10765;50.954;5.322;2024-03-02T12:57:46;20.50;1.00
21216;DHT22;10765;50.954;5.322;2024-03-02T13:00:13;20.00;1.00
21216;DHT22;10765;50.954;5.322;2024-03-02T13:02:41;17.10;1.00
21216;DHT22;10765;50.954;5.322;2024-03-02T13:05:08;15.40;1.00
21216;DHT22;10765;50.954;5.322;2024-03-02T13:07:38;15.10;1.00
21216;DHT22;10765;50.954;5.322;2024-03-02T13:10:06;15.20;1.00
21216;DHT22;10765;50.954;5.322;2024-03-02T13:12:35;15.60;1.00
21216;DHT22;10765;50.954;5.322;2024-03-02T13:15:04;16.60;1.00
21216;DHT22;10765;50.954;5.322;2024-03-02T13:17:33;16.20;1.00
21216;DHT22;10765;50.954;5.322;2024-03-02T13:20:00;15.50;1.00
21216;DHT22;10765;50.954;5.322;2024-03-02T13:22:29;15.10;1.00
21216;DHT22;10765;50.954;5.322;2024-03-02T13:24:57;17.60;1.00
21216;DHT22;10765;50.954;5.322;2024-03-02T13:27:25;19.20;1.00
21216;DHT22;10765;50.954;5.322;2024-03-02T13:29:52;17.60;1.00
21216;DHT22;10765;50.954;5.322;2024-03-02T13:32:19;17.90;1.00
21216;DHT22;10765;50.954;5.322;2024-03-02T13:34:49;17.00;1.00
21216;DHT22;10765;50.954;5.322;2024-03-02T13:37:16;16.00;1.00
21216;DHT22;10765;50.954;5.322;2024-03-02T13:39:43;17.20;1.00
21216;DHT22;10765;50.954;5.322;2024-03-02T13:42:12;18.90;1.00
21216;DHT22;10765;50.954;5.322;2024-03-02T13:44:41;17.80;1.00
21216;DHT22;10765;50.954;5.322;2024-03-02T13:47:11;16.90;1.00
21216;DHT22;10765;50.954;5.322;2024-03-02T13:49:37;15.70;1.00
21216;DHT22;10765;50.954;5.322;2024-03-02T13:52:07;14.80;1.00
21216;DHT22;10765;50.954;5.322;2024-03-02T13:54:38;14.60;1.00
21216;DHT22;10765;50.954;5.322;2024-03-02T13:57:06;14.60;1.00
21216;DHT22;10765;50.954;5.322;2024-03-02T13:59:34;14.70;1.00
21216;DHT22;10765;50.954;5.322;2024-03-02T14:02:01;14.90;1.00
21216;DHT22;10765;50.954;5.322;2024-03-02T14:04:30;15.10;1.00
21216;DHT22;10765;50.954;5.322;2024-03-02T14:06:57;15.00;1.00
21216;DHT22;10765;50.954;5.322;2024-03-02T14:09:24;15.20;1.00
21216;DHT22;10765;50.954;5.322;2024-03-02T14:11:51;16.40;1.00
21216;DHT22;10765;50.954;5.322;2024-03-02T14:14:18;16.30;1.00
21216;DHT22;10765;50.954;5.322;2024-03-02T14:16:46;17.40;1.00
21216;DHT22;10765;50.954;5.322;2024-03-02T14:19:13;17.80;1.00
21216;DHT22;10765;50.954;5.322;2024-03-02T14:21:40;17.40;1.00
21216;DHT22;10765;50.954;5.322;2024-03-02T14:24:07;16.40;1.00
21216;DHT22;10765;50.954;5.322;2024-03-02T14:26:35;16.00;1.00
21216;DHT22;10765;50.954;5.322;2024-03-02T14:29:02;15.60;1.00
21216;DHT22;10765;50.954;5.322;2024-03-02T14:31:29;15.30;1.00
21216;DHT22;10765;50.954;5.322;2024-03-02T14:33:58;15.00;1.00
21216;DHT22;10765;50.954;5.322;2024-03-02T14:36:25;14.50;1.00
21216;DHT22;10765;50.954;5.322;2024-03-02T14:38:53;14.70;1.00
21216;DHT22;10765;50.954;5.322;2024-03-02T14:41:20;15.00;1.00
21216;DHT22;10765;50.954;5.322;2024-03-02T14:43:47;15.50;1.00
21216;DHT22;10765;50.954;5.322;2024-03-02T14:46:15;15.10;1.00
21216;DHT22;10765;50.954;5.322;2024-03-02T14:48:44;14.80;1.00
21216;DHT22;10765;50.954;5.322;2024-03-02T14:51:13;14.40;1.00
21216;DHT22;10765;50.954;5.322;2024-03-02T14:53:40;14.10;1.00
21216;DHT22;10765;50.954;5.322;2024-03-02T14:56:06;14.10;1.00
21216;DHT22;10765;50.954;5.322;2024-03-02T14:58:33;14.10;1.00
21216;DHT22;10765;50.954;5.322;2024-03-02T15:01:01;13.90;1.00
21216;DHT22;10765;50.954;5.322;2024-03-02T15:03:28;14.10;1.00
21216;DHT22;10765;50.954;5.322;2024-03-02T15:05:55;14.20;1.00
21216;DHT22;10765;50.954;5.322;2024-03-02T15:08:23;14.10;1.00
21216;DHT22;10765;50.954;5.322;2024-03-02T15:10:50;14.00;1.00
21216;DHT22;10765;50.954;5.322;2024-03-02T15:13:17;13.80;1.00
21216;DHT22;10765;50.954;5.322;2024-03-02T15:15:44;13.60;1.00
21216;DHT22;10765;50.954;5.322;2024-03-02T15:18:11;13.50;1.00
21216;DHT22;10765;50.954;5.322;2024-03-02T15:20:38;13.50;1.00
21216;DHT22;10765;50.954;5.322;2024-03-02T15:23:06;13.40;1.00
21216;DHT22;10765;50.954;5.322;2024-03-02T15:25:34;13.30;1.00
21216;DHT22;10765;50.954;5.322;2024-03-02T15:28:01;13.30;1.00
21216;DHT22;10765;50.954;5.322;2024-03-02T15:30:28;13.30;1.00
21216;DHT22;10765;50.954;5.322;2024-03-02T15:32:55;13.20;1.00
21216;DHT22;10765;50.954;5.322;2024-03-02T15:35:23;13.20;1.00
21216;DHT22;10765;50.954;5.322;2024-03-02T15:37:49;13.20;1.00
21216;DHT22;10765;50.954;5.322;2024-03-02T15:40:16;13.20;1.00
21216;DHT22;10765;50.954;5.322;2024-03-02T15:42:45;13.30;1.00
21216;DHT22;10765;50.954;5.322;2024-03-02T15:45:12;13.30;1.00
21216;DHT22;10765;50.954;5.322;2024-03-02T15:47:39;13.40;1.00
21216;DHT22;10765;50.954;5.322;2024-03-02T15:50:06;13.40;1.00
21216;DHT22;10765;50.954;5.322;2024-03-02T15:52:33;13.40;1.00
21216;DHT22;10765;50.954;5.322;2024-03-02T15:55:00;13.30;1.00